Aragon, GA

12:09 PM EDT on May 27, 2015 (GMT -0400)
Lindale | | Change Station
CLOSE
Current Station
Personal Weather Station
Location: Lindale, GA
Elevation: 780 ft
Nearby Weather Stations

Elev 780 ft 34.16 °N, 85.18 °W | Updated 4 seconds ago

Overcast
Overcast
75.2 °F
Feels Like 77 °F
N
3.0
Wind Variable Wind from East
Gusts 3.0 mph

Today
High -- | Low -- °F
--% Chance of Precip.
Yesterday
High -- | Low -- °F
Precip. -- in
6:31 AM 8:43 PM
Waxing Gibbous, 68% visible
Pressure 30.27 in
Visibility 10.0 miles
Clouds Scattered Clouds 900 ft
Scattered Clouds 1300 ft
Overcast 2500 ft
Heat Index 77 °F
Dew Point 66 °F
Humidity 74%
Rainfall 0.00 in
Snow Depth Not available.
UV 3 out of 12
Pollen .60 out of 12
Air Quality Not available.
Flu Activity Sporadic
METAR KPUJ 271555Z AUTO 16005KT 10SM SCT009 SCT013 OVC025 25/24 A3027 RMK AO2

More Conditions Fewer Conditions

Pressure 30.27 in
Visibility 10.0 miles
Clouds Scattered Clouds 900 ft
Scattered Clouds 1300 ft
Overcast 2500 ft
Heat Index 77 °F
Dew Point 66 °F
Humidity 74%
Rainfall 0.00 in
Snow Depth Not available.
UV 3 out of 12
Pollen .60 out of 12
Air Quality Not available.
Flu Activity Sporadic
METAR KPUJ 271555Z AUTO 16005KT 10SM SCT009 SCT013 OVC025 25/24 A3027 RMK AO2

More Conditions Fewer Conditions

10-Day Weather Forecast

Almanac

Astronomy

May. 27, 2015 Rise Set
Actual Time
Civil Twilight
Nautical Twilight
Astronomical Twilight
Moon
Length of Visible Light
Length of Day
Tomorrow will be .
, % of the Moon is Illuminated

Today's Extremes

State Highs State Lows

Community

WunderPhotos

Upload Photos

1,824,702 photos uploaded!

WunderBlogs® & News

Nearby

Air Quality

  Air Quality AQ Index Pollutant
Not available.

Snow Depth

Station Depth Elevation

Earthquake Activity

City Distance Mag. Time & Date
Minimum magnitude displayed is 2.5.

Coastal Water Temperatures

Place Temperature

Stations

Nearby Weather Stations

Station Location Temp. Windchill Dew Point Humidity Wind Precip. Elev Updated Type